Time;durP1;ratioP1;P1;durP2;ratioP2;P2;SDS_P1;SDS_P2;PMS_P1;PMS_P2;Temp;Humidity;BMP_temperature;BMP_pressure;BME280_temperature;BME280_humidity;BME280_pressure;Samples;Min_cycle;Max_cycle;Signal;HPM_P1;HPM_P2
2021/08/10 00:00:47;;;;;;;8.13;6.45;;;;;;;23.79;62.35;100624.73;1774685;79;21978;-60
2021/08/10 00:03:14;;;;;;;8.68;6.85;;;;;;;23.78;62.39;100621.23;1778193;79;21027;-60
2021/08/10 00:05:47;;;;;;;9.55;6.33;;;;;;;23.76;62.41;100626.51;1785350;79;21098;-60
2021/08/10 00:08:10;;;;;;;8.78;6.25;;;;;;;23.72;62.52;100628.25;1785402;79;21062;-58
2021/08/10 00:10:37;;;;;;;7.97;6.53;;;;;;;23.68;62.67;100620.27;1777367;79;20999;-60
2021/08/10 00:13:03;;;;;;;9.73;6.28;;;;;;;23.61;62.82;100620.78;1776294;79;21131;-59
2021/08/10 00:15:30;;;;;;;8.30;5.53;;;;;;;23.60;62.96;100622.33;1776971;79;21026;-59
2021/08/10 00:17:57;;;;;;;9.20;6.65;;;;;;;23.61;62.98;100630.70;1781207;79;21576;-59
2021/08/10 00:20:23;;;;;;;9.15;6.33;;;;;;;23.58;62.79;100631.11;1777097;80;21053;-59
2021/08/10 00:22:52;;;;;;;9.75;7.03;;;;;;;23.52;62.76;100629.55;1780775;79;21072;-59
2021/08/10 00:25:18;;;;;;;10.10;7.00;;;;;;;23.49;62.84;100630.47;1777140;80;21131;-60
2021/08/10 00:27:45;;;;;;;8.08;5.95;;;;;;;23.44;62.88;100630.25;1780461;79;21409;-60
2021/08/10 00:30:12;;;;;;;8.78;6.42;;;;;;;23.38;62.88;100630.52;1778124;79;20987;-60
2021/08/10 00:32:39;;;;;;;7.62;6.30;;;;;;;23.36;63.05;100628.03;1775909;79;21125;-59
2021/08/10 00:35:06;;;;;;;7.70;6.20;;;;;;;23.38;63.06;100627.83;1777222;79;21547;-59
2021/08/10 00:37:33;;;;;;;8.63;6.67;;;;;;;23.37;62.94;100628.36;1782401;79;21140;-60
2021/08/10 00:39:59;;;;;;;8.00;6.37;;;;;;;23.32;62.95;100634.03;1774194;79;21360;-59
2021/08/10 00:42:26;;;;;;;9.90;6.67;;;;;;;23.27;63.05;100631.12;1785243;79;21069;-60
2021/08/10 00:47:43;;;;;;;7.65;6.10;;;;;;;23.17;63.49;100626.12;1774074;78;22701;-59
2021/08/10 00:50:11;;;;;;;8.33;7.15;;;;;;;23.10;63.59;100634.14;1745054;81;21595;-60
2021/08/10 00:52:40;;;;;;;7.72;5.87;;;;;;;23.05;63.70;100630.34;1734974;81;21457;-60
2021/08/10 00:55:08;;;;;;;9.63;6.58;;;;;;;22.99;63.75;100633.31;1741448;80;21093;-60
2021/08/10 00:57:35;;;;;;;10.60;6.45;;;;;;;22.96;63.83;100633.22;1700287;81;21101;-60
2021/08/10 01:00:05;;;;;;;8.88;6.87;;;;;;;23.00;63.86;100633.64;1688622;83;21058;-60
2021/08/10 01:02:32;;;;;;;8.85;6.28;;;;;;;23.00;63.83;100633.64;1680957;83;21055;-60
2021/08/10 01:04:59;;;;;;;8.83;6.50;;;;;;;23.00;63.89;100637.67;1708738;81;21696;-60
2021/08/10 01:07:40;;;;;;;9.50;6.10;;;;;;;22.96;63.85;100640.42;1700052;83;21002;-60
2021/08/10 01:10:15;;;;;;;8.18;6.45;;;;;;;22.92;63.89;100639.99;1711272;83;21137;-60
2021/08/10 01:12:54;;;;;;;8.40;6.37;;;;;;;22.92;63.87;100643.20;1704236;81;21070;-59
2021/08/10 01:15:24;;;;;;;7.55;6.30;;;;;;;22.90;63.84;100640.70;1701295;83;21460;-60
2021/08/10 01:18:11;;;;;;;9.58;6.42;;;;;;;22.86;63.88;100642.11;1675167;83;21438;-59
2021/08/10 01:21:05;;;;;;;9.83;6.60;;;;;;;22.84;63.91;100643.35;1710038;81;21102;-60
2021/08/10 01:23:33;;;;;;;9.18;6.58;;;;;;;22.76;64.06;100645.17;1672901;83;21035;-60
2021/08/10 01:26:29;;;;;;;11.63;6.37;;;;;;;22.68;64.27;100646.67;1692487;83;21086;-60
2021/08/10 01:29:34;;;;;;;8.40;5.87;;;;;;;22.64;64.33;100644.05;1692146;82;21077;-59
2021/08/10 01:32:02;;;;;;;12.37;5.83;;;;;;;22.67;64.43;100639.63;1683546;82;21152;-60
2021/08/10 01:34:38;;;;;;;10.45;6.20;;;;;;;22.70;64.42;100645.95;1695227;82;21065;-60
2021/08/10 01:37:16;;;;;;;8.93;6.12;;;;;;;22.70;64.53;100640.59;1675667;82;22385;-60
2021/08/10 01:39:46;;;;;;;10.40;6.35;;;;;;;22.63;64.60;100640.54;1699611;82;21608;-59
2021/08/10 01:42:12;;;;;;;7.87;6.22;;;;;;;22.59;64.71;100631.24;1704463;82;21125;-59
2021/08/10 01:44:39;;;;;;;10.18;6.25;;;;;;;22.57;64.74;100631.92;1664114;84;22010;-60
2021/08/10 01:47:08;;;;;;;7.85;5.53;;;;;;;22.54;64.77;100628.81;1687729;82;21639;-60
2021/08/10 01:49:37;;;;;;;7.72;6.22;;;;;;;22.54;64.77;100628.81;1661322;84;21074;-59
2021/08/10 01:52:06;;;;;;;7.65;5.65;;;;;;;22.53;64.84;100621.81;1682882;82;21579;-60
2021/08/10 01:54:33;;;;;;;7.50;6.28;;;;;;;22.53;64.93;100615.11;1686489;83;21105;-60
2021/08/10 01:56:59;;;;;;;9.65;6.35;;;;;;;22.51;64.95;100624.69;1679514;82;21138;-60
2021/08/10 01:59:29;;;;;;;9.65;6.67;;;;;;;22.48;65.02;100620.20;1677938;82;21079;-60
2021/08/10 02:01:55;;;;;;;10.65;6.08;;;;;;;22.40;65.17;100629.23;1682492;82;21479;-60
2021/08/10 02:04:22;;;;;;;9.10;5.85;;;;;;;22.36;65.34;100628.80;1685294;82;21722;-60
2021/08/10 02:06:51;;;;;;;9.10;6.35;;;;;;;22.37;65.48;100629.62;1682438;82;21121;-58
2021/08/10 02:09:20;;;;;;;8.10;6.15;;;;;;;22.31;65.49;100619.66;1681794;83;21542;-59
2021/08/10 02:11:48;;;;;;;8.53;6.37;;;;;;;22.32;65.55;100626.17;1675453;82;21118;-59
2021/08/10 02:14:20;;;;;;;7.17;6.08;;;;;;;22.29;65.60;100619.03;1690831;82;21040;-59
2021/08/10 02:16:45;;;;;;;8.50;6.40;;;;;;;22.25;65.64;100617.23;1673818;83;21562;-60
2021/08/10 02:19:16;;;;;;;8.53;6.35;;;;;;;22.19;65.83;100618.84;1655314;84;21086;-59
2021/08/10 02:21:46;;;;;;;7.72;6.03;;;;;;;22.16;65.88;100616.55;1700343;82;21772;-59
2021/08/10 02:24:23;;;;;;;10.40;6.35;;;;;;;22.21;65.81;100613.29;1680864;83;21075;-59
2021/08/10 02:26:59;;;;;;;10.80;5.72;;;;;;;22.22;65.81;100614.93;1739505;80;21509;-59
2021/08/10 02:29:29;;;;;;;8.63;6.25;;;;;;;22.24;65.80;100619.09;1703360;83;21402;-59
2021/08/10 02:31:56;;;;;;;8.30;6.45;;;;;;;22.21;65.87;100615.45;1733533;80;22000;-60
2021/08/10 02:34:24;;;;;;;8.53;5.92;;;;;;;22.18;65.92;100625.73;1699998;82;21162;-59
2021/08/10 02:36:54;;;;;;;8.65;5.83;;;;;;;22.14;65.92;100623.95;1690582;83;21099;-59
2021/08/10 02:39:21;;;;;;;7.25;5.45;;;;;;;22.12;65.98;100622.47;1735737;80;21348;-59
2021/08/10 02:41:49;;;;;;;7.45;5.60;;;;;;;22.13;65.92;100624.97;1746198;80;21078;-59
2021/08/10 02:44:16;;;;;;;7.83;6.10;;;;;;;22.14;65.97;100625.78;1743713;80;21056;-59
2021/08/10 02:46:43;;;;;;;9.75;5.90;;;;;;;22.10;66.02;100621.84;1732871;80;21133;-60
2021/08/10 02:49:11;;;;;;;8.58;6.30;;;;;;;22.03;66.25;100621.27;1685889;82;21329;-58
2021/08/10 02:51:39;;;;;;;7.95;5.37;;;;;;;22.01;66.30;100624.66;1665277;83;21691;-59
2021/08/10 02:54:05;;;;;;;8.98;6.10;;;;;;;22.01;66.33;100630.53;1743345;80;21059;-60
2021/08/10 02:56:36;;;;;;;7.65;5.58;;;;;;;22.03;66.25;100629.83;1728404;80;21165;-59
2021/08/10 02:59:17;;;;;;;8.50;5.85;;;;;;;22.05;66.16;100631.27;1690038;84;21119;-60
2021/08/10 03:01:49;;;;;;;8.55;6.33;;;;;;;22.04;66.19;100628.78;1722459;80;21019;-60
2021/08/10 03:04:16;;;;;;;8.05;6.20;;;;;;;22.01;66.25;100631.35;1686811;82;21530;-61
2021/08/10 03:06:43;;;;;;;7.75;5.95;;;;;;;21.96;66.35;100627.08;1728381;80;21082;-59
2021/08/10 03:09:12;;;;;;;7.78;6.00;;;;;;;21.96;66.40;100634.30;1728789;80;21054;-62
2021/08/10 03:11:42;;;;;;;8.10;6.17;;;;;;;21.96;66.38;100633.78;1730178;80;21815;-61
2021/08/10 03:14:12;;;;;;;7.50;5.33;;;;;;;22.00;66.23;100633.70;1730606;80;21526;-62
2021/08/10 03:16:42;;;;;;;7.90;6.35;;;;;;;22.02;66.28;100627.66;1731830;80;21133;-61
2021/08/10 03:19:09;;;;;;;7.90;5.78;;;;;;;22.04;66.31;100637.67;1712806;82;21696;-61
2021/08/10 03:21:36;;;;;;;7.50;5.90;;;;;;;22.03;66.27;100637.86;1730431;80;21222;-61
2021/08/10 03:24:05;;;;;;;9.80;6.22;;;;;;;21.96;66.33;100643.16;1735070;80;21904;-61
2021/08/10 03:26:32;;;;;;;8.58;5.85;;;;;;;21.89;66.48;100637.73;1731749;80;21102;-62
2021/08/10 03:28:59;;;;;;;8.40;5.90;;;;;;;21.88;66.61;100636.58;1701023;82;21656;-58
2021/08/10 03:31:26;;;;;;;7.90;5.70;;;;;;;21.90;66.56;100639.89;1728512;81;21131;-65
2021/08/10 03:33:53;;;;;;;9.38;6.80;;;;;;;21.92;66.57;100638.37;1727722;80;21063;-60
2021/08/10 03:36:24;;;;;;;8.13;6.10;;;;;;;21.91;66.58;100637.55;1726884;80;21120;-59
2021/08/10 03:38:55;;;;;;;7.58;5.92;;;;;;;21.90;66.67;100638.55;1719369;80;21086;-60
2021/08/10 03:41:24;;;;;;;7.00;5.47;;;;;;;21.91;66.71;100640.22;1731950;80;21129;-63
2021/08/10 03:43:51;;;;;;;9.20;5.97;;;;;;;21.88;66.61;100638.74;1742139;80;21022;-61
2021/08/10 03:46:19;;;;;;;7.65;5.28;;;;;;;21.90;66.51;100638.55;1727743;80;21081;-61
2021/08/10 03:48:46;;;;;;;9.98;6.25;;;;;;;21.97;66.38;100639.95;1671332;85;22895;-62
2021/08/10 03:51:14;;;;;;;7.17;5.35;;;;;;;21.99;66.24;100641.44;1631388;85;21016;-61
2021/08/10 03:53:43;;;;;;;7.67;6.00;;;;;;;21.99;66.04;100644.12;1660737;83;21102;-62
2021/08/10 03:56:09;;;;;;;8.73;6.08;;;;;;;22.00;66.08;100641.73;1666621;83;21743;-62
2021/08/10 03:58:39;;;;;;;7.12;5.80;;;;;;;21.96;66.06;100644.50;1668859;85;21039;-61
2021/08/10 04:01:05;;;;;;;8.68;6.03;;;;;;;21.95;66.21;100642.83;1627851;85;21105;-62
2021/08/10 04:03:34;;;;;;;7.40;5.53;;;;;;;21.94;66.17;100644.35;1666960;83;21049;-61
2021/08/10 04:06:14;;;;;;;8.80;5.60;;;;;;;21.95;66.01;100638.80;1642873;83;21152;-63
2021/08/10 04:08:42;;;;;;;12.23;6.25;;;;;;;22.01;65.70;100640.73;1623109;86;21214;-63
2021/08/10 04:11:10;;;;;;;7.25;5.03;;;;;;;22.07;65.51;100641.80;1667383;83;21699;-62
2021/08/10 04:13:37;;;;;;;8.63;5.45;;;;;;;22.06;65.42;100635.62;1666881;83;21841;-60
2021/08/10 04:16:07;;;;;;;7.47;5.45;;;;;;;22.07;65.47;100635.11;1647898;85;21163;-61
2021/08/10 04:18:36;;;;;;;6.28;4.90;;;;;;;22.07;65.54;100633.27;1648355;85;21130;-63
2021/08/10 04:21:05;;;;;;;7.90;5.05;;;;;;;22.10;65.44;100636.06;1657158;84;21099;-61
2021/08/10 04:23:32;;;;;;;7.80;5.03;;;;;;;22.17;65.23;100630.24;1658514;85;21131;-61
2021/08/10 04:26:02;;;;;;;8.48;5.12;;;;;;;22.21;64.99;100636.07;1657841;84;21138;-62
2021/08/10 04:28:31;;;;;;;8.53;5.35;;;;;;;22.19;65.07;100632.24;1659596;83;21079;-61
2021/08/10 04:31:18;;;;;;;8.98;5.37;;;;;;;22.19;64.95;100632.73;1659274;84;21658;-63
2021/08/10 04:33:46;;;;;;;8.95;5.83;;;;;;;22.18;64.72;100631.91;1713860;81;21128;-61
2021/08/10 04:36:14;;;;;;;7.78;5.47;;;;;;;22.19;64.81;100626.88;1718550;82;21580;-61
2021/08/10 04:38:41;;;;;;;8.10;5.65;;;;;;;22.22;64.78;100622.97;1714603;82;21122;-66
2021/08/10 04:41:08;;;;;;;10.13;6.12;;;;;;;22.21;65.00;100630.71;1699020;83;21183;-61
2021/08/10 04:43:44;;;;;;;8.60;5.85;;;;;;;22.17;64.65;100625.41;1695908;82;21525;-60
2021/08/10 04:46:10;;;;;;;7.58;5.67;;;;;;;22.16;64.79;100617.88;1697303;82;21109;-61
2021/08/10 04:48:37;;;;;;;8.35;5.03;;;;;;;22.22;64.82;100626.98;1692511;82;21093;-61
2021/08/10 04:51:06;;;;;;;8.35;4.85;;;;;;;22.29;64.78;100619.85;1693877;82;23134;-58
2021/08/10 04:53:34;;;;;;;8.98;5.45;;;;;;;22.35;64.72;100612.91;1694422;82;21071;-62
2021/08/10 04:56:00;;;;;;;7.58;4.92;;;;;;;22.37;64.63;100614.36;1694277;82;21477;-61
2021/08/10 04:58:30;;;;;;;9.20;5.75;;;;;;;22.37;64.69;100612.19;1696260;82;21089;-61
2021/08/10 05:00:57;;;;;;;6.67;4.53;;;;;;;22.38;64.93;100620.05;1696791;82;21146;-63
2021/08/10 05:03:23;;;;;;;8.40;5.12;;;;;;;22.43;64.73;100612.77;1668065;82;21948;-60
2021/08/10 05:05:51;;;;;;;8.98;5.35;;;;;;;22.48;65.00;100624.22;1699446;82;21133;-60
2021/08/10 05:08:17;;;;;;;7.97;4.90;;;;;;;22.52;64.79;100621.48;1699188;82;21069;-61
2021/08/10 05:10:45;;;;;;;9.33;5.25;;;;;;;22.55;64.55;100621.91;1695928;82;21165;-62
2021/08/10 05:13:15;;;;;;;7.67;5.37;;;;;;;22.58;64.59;100615.34;1696844;82;21043;-62
2021/08/10 05:15:43;;;;;;;7.25;4.53;;;;;;;22.66;64.43;100615.16;1696482;82;21636;-62
2021/08/10 05:18:10;;;;;;;7.12;4.97;;;;;;;22.71;64.20;100623.48;1692985;82;21090;-60
2021/08/10 05:20:39;;;;;;;8.25;4.85;;;;;;;22.74;64.65;100618.22;1694649;82;21085;-61
2021/08/10 05:23:08;;;;;;;7.72;4.60;;;;;;;22.75;64.71;100617.20;1693762;82;21117;-61
2021/08/10 05:25:38;;;;;;;7.67;5.28;;;;;;;22.75;64.71;100624.73;1689898;82;21605;-61
2021/08/10 05:28:06;;;;;;;9.48;5.42;;;;;;;22.81;64.66;100623.95;1700830;82;21131;-61
2021/08/10 05:30:32;;;;;;;6.75;4.95;;;;;;;22.87;64.44;100629.02;1692431;82;21100;-60
2021/08/10 05:32:59;;;;;;;7.87;5.10;;;;;;;22.89;63.82;100627.48;1697528;82;21540;-62
2021/08/10 05:35:30;;;;;;;6.58;4.92;;;;;;;22.88;63.98;100631.19;1692412;82;21169;-61
2021/08/10 05:37:58;;;;;;;10.75;5.33;;;;;;;22.85;64.13;100628.89;1695488;82;21061;-60
2021/08/10 05:40:25;;;;;;;6.95;4.70;;;;;;;22.84;63.98;100629.94;1695874;82;21105;-60
2021/08/10 05:42:54;;;;;;;11.73;4.83;;;;;;;22.85;64.00;100618.16;1694628;82;21439;-59
2021/08/10 05:45:22;;;;;;;8.43;5.37;;;;;;;22.90;64.06;100615.74;1694228;82;21134;-60
2021/08/10 05:47:49;;;;;;;7.00;5.00;;;;;;;22.96;64.00;100619.80;1695470;82;21117;-60
2021/08/10 05:50:17;;;;;;;8.20;5.45;;;;;;;23.00;63.82;100622.91;1695446;82;21334;-60
2021/08/10 05:52:44;;;;;;;8.98;5.78;;;;;;;23.03;63.63;100621.67;1694980;82;21140;-60
2021/08/10 05:55:11;;;;;;;6.72;4.75;;;;;;;23.04;63.59;100617.45;1699014;82;21081;-58
2021/08/10 05:57:39;;;;;;;9.28;5.53;;;;;;;23.11;63.75;100613.48;1696462;82;21077;-60
2021/08/10 06:00:07;;;;;;;8.68;5.78;;;;;;;23.21;63.04;100613.94;1692631;82;21356;-58
2021/08/10 06:02:36;;;;;;;8.10;5.62;;;;;;;23.27;63.13;100617.70;1689477;82;21714;-60
2021/08/10 06:05:06;;;;;;;7.42;5.00;;;;;;;23.28;62.60;100614.78;1704233;82;21542;-61
2021/08/10 06:07:33;;;;;;;8.75;4.85;;;;;;;23.27;62.75;100614.48;1695477;82;21089;-63
2021/08/10 06:10:00;;;;;;;7.15;4.67;;;;;;;23.32;63.05;100613.89;1675150;83;21581;-62
2021/08/10 06:12:28;;;;;;;8.90;5.67;;;;;;;23.41;63.02;100614.02;1695757;82;21078;-61
2021/08/10 06:14:55;;;;;;;7.47;5.40;;;;;;;23.48;62.05;100613.51;1696572;82;21523;-64
2021/08/10 06:17:21;;;;;;;8.55;5.22;;;;;;;23.53;62.25;100616.94;1691412;82;21129;-64
2021/08/10 06:19:48;;;;;;;8.40;6.03;;;;;;;23.56;61.86;100611.98;1692441;82;21112;-64
2021/08/10 06:22:15;;;;;;;8.03;5.08;;;;;;;23.58;61.54;100609.09;1688473;83;21093;-71
2021/08/10 06:24:42;;;;;;;8.35;5.00;;;;;;;23.59;62.15;100601.36;1668492;83;21125;-63
2021/08/10 06:27:10;;;;;;;8.35;5.33;;;;;;;23.64;61.40;100609.64;1692586;82;21117;-67
2021/08/10 06:29:38;;;;;;;6.60;5.05;;;;;;;23.63;61.06;100605.81;1697279;82;21535;-64
2021/08/10 06:32:07;;;;;;;6.45;4.47;;;;;;;23.60;61.55;100611.58;1691840;82;21090;-63
2021/08/10 06:34:33;;;;;;;7.75;4.42;;;;;;;23.58;61.48;100610.44;1693313;82;21066;-63
2021/08/10 06:37:00;;;;;;;7.47;5.25;;;;;;;23.68;61.81;100611.39;1690785;82;21600;-64
2021/08/10 06:39:28;;;;;;;6.62;5.12;;;;;;;23.77;61.42;100614.71;1693587;82;21525;-62
2021/08/10 06:41:57;;;;;;;7.28;5.22;;;;;;;23.83;61.46;100612.06;1693159;82;21168;-63
2021/08/10 06:44:25;;;;;;;6.92;5.45;;;;;;;23.86;61.23;100613.53;1694136;82;21118;-63
2021/08/10 06:46:54;;;;;;;8.50;5.03;;;;;;;23.87;61.18;100612.48;1695569;82;21560;-64
2021/08/10 06:49:21;;;;;;;11.65;4.83;;;;;;;23.86;61.40;100614.35;1670019;84;21137;-63
2021/08/10 06:51:49;;;;;;;7.00;5.12;;;;;;;23.89;61.20;100616.63;1692643;82;21723;-64
2021/08/10 06:54:15;;;;;;;6.87;4.60;;;;;;;23.99;60.53;100607.33;1695706;82;21419;-67
2021/08/10 06:56:44;;;;;;;5.70;4.08;;;;;;;24.06;60.42;100605.48;1691584;82;21093;-64
2021/08/10 06:59:11;;;;;;;8.33;4.05;;;;;;;24.11;60.29;100608.38;1693671;82;22406;-63
2021/08/10 07:01:37;;;;;;;6.95;4.40;;;;;;;24.13;60.14;100602.27;1690444;82;21103;-63
2021/08/10 07:04:04;;;;;;;8.70;4.55;;;;;;;24.16;60.55;100603.21;1693606;82;21095;-63
2021/08/10 07:06:31;;;;;;;7.35;4.47;;;;;;;24.21;60.34;100602.56;1694385;82;21101;-66
2021/08/10 07:09:04;;;;;;;6.50;4.25;;;;;;;24.34;59.78;100590.98;1692828;82;21053;-65
2021/08/10 07:11:26;;;;;;;6.45;4.55;;;;;;;24.44;59.53;100594.92;1692678;82;21078;-64
2021/08/10 07:13:55;;;;;;;6.25;4.37;;;;;;;24.48;59.36;100590.77;1666385;84;21637;-64
2021/08/10 07:16:21;;;;;;;7.58;4.25;;;;;;;24.52;58.31;100592.51;1693851;82;21137;-64
2021/08/10 07:18:48;;;;;;;7.37;4.90;;;;;;;24.54;58.35;100596.34;1707177;83;21102;-66
2021/08/10 07:21:17;;;;;;;6.12;4.37;;;;;;;24.54;58.15;100597.16;1665190;83;21172;-63
2021/08/10 07:23:46;;;;;;;6.25;4.10;;;;;;;24.55;58.09;100599.37;1687640;83;21522;-60
2021/08/10 07:26:13;;;;;;;6.00;4.20;;;;;;;24.56;58.42;100593.79;1682412;84;21129;-64
2021/08/10 07:28:41;;;;;;;7.65;4.50;;;;;;;24.65;58.38;100598.42;1715677;81;21108;-65
2021/08/10 07:31:08;;;;;;;8.40;3.80;;;;;;;24.72;57.29;100601.91;1681656;83;21100;-63
2021/08/10 07:33:35;;;;;;;6.17;4.70;;;;;;;24.77;57.66;100595.38;1701090;81;21111;-62
2021/08/10 07:36:05;;;;;;;7.78;4.75;;;;;;;24.83;58.03;100598.58;1684372;83;21477;-67
2021/08/10 07:38:33;;;;;;;6.67;4.42;;;;;;;24.89;57.82;100602.80;1659949;84;21101;-62
2021/08/10 07:41:02;;;;;;;6.97;4.85;;;;;;;24.91;57.40;100602.88;1668792;84;21150;-65
2021/08/10 07:43:29;;;;;;;6.55;4.20;;;;;;;24.90;57.67;100599.91;1672758;83;21133;-64
2021/08/10 07:45:59;;;;;;;6.65;4.75;;;;;;;24.93;57.38;100593.25;1675968;83;21162;-65
2021/08/10 07:48:25;;;;;;;7.72;4.28;;;;;;;25.01;57.79;100604.60;1675508;83;21588;-65
2021/08/10 07:50:53;;;;;;;6.40;4.00;;;;;;;25.11;56.29;100599.30;1675732;83;21127;-65
2021/08/10 07:53:20;;;;;;;7.67;4.90;;;;;;;25.16;56.41;100594.92;1668825;83;21588;-62
2021/08/10 07:55:48;;;;;;;6.70;4.78;;;;;;;25.20;56.91;100602.05;1671375;83;22448;-63
2021/08/10 07:58:14;;;;;;;6.90;4.03;;;;;;;25.21;57.38;100599.67;1683905;83;21117;-62
2021/08/10 08:00:41;;;;;;;6.87;4.42;;;;;;;25.24;56.19;100599.24;1684684;83;21106;-63
2021/08/10 08:03:10;;;;;;;6.25;3.85;;;;;;;25.23;55.39;100593.54;1655628;84;21749;-62
2021/08/10 08:05:36;;;;;;;5.83;3.98;;;;;;;25.23;56.15;100592.19;1658330;84;21584;-66
2021/08/10 08:08:03;;;;;;;6.22;3.87;;;;;;;25.21;55.24;100592.41;1685232;83;21533;-62
2021/08/10 08:10:31;;;;;;;5.60;3.27;;;;;;;25.25;56.26;100587.94;1682291;83;21106;-63
2021/08/10 08:12:59;;;;;;;5.87;3.72;;;;;;;25.25;55.92;100590.14;1661417;84;21121;-62
2021/08/10 08:15:27;;;;;;;6.47;4.00;;;;;;;25.26;55.55;100599.87;1661044;84;21062;-61
2021/08/10 08:17:54;;;;;;;5.70;3.83;;;;;;;25.25;55.91;100593.33;1663177;84;21138;-61
2021/08/10 08:20:21;;;;;;;5.85;3.42;;;;;;;25.31;56.07;100593.86;1667451;84;21437;-63
2021/08/10 08:22:48;;;;;;;6.12;4.12;;;;;;;25.35;55.04;100598.61;1661884;84;21533;-64
2021/08/10 08:25:15;;;;;;;6.33;4.28;;;;;;;25.39;55.25;100603.04;1666334;84;21099;-64
2021/08/10 08:27:41;;;;;;;6.45;3.60;;;;;;;25.39;55.61;100607.08;1654597;84;21113;-63
2021/08/10 08:30:09;;;;;;;6.28;4.10;;;;;;;25.43;55.70;100604.77;1658337;85;21082;-62
2021/08/10 08:32:35;;;;;;;6.05;4.30;;;;;;;25.45;55.38;100594.60;1686438;83;21337;-62
2021/08/10 08:35:03;;;;;;;6.10;4.10;;;;;;;25.46;55.48;100598.96;1670701;84;21117;-61
2021/08/10 08:37:29;;;;;;;6.80;3.95;;;;;;;25.48;55.36;100595.52;1662186;84;21160;-62
2021/08/10 08:39:59;;;;;;;6.10;4.10;;;;;;;25.49;55.66;100589.92;1684985;84;21173;-62
2021/08/10 08:42:26;;;;;;;7.42;4.42;;;;;;;25.53;56.06;100594.35;1686451;84;21059;-62
2021/08/10 08:44:53;;;;;;;6.17;4.05;;;;;;;25.57;55.46;100588.82;1686098;83;21064;-62
2021/08/10 08:47:21;;;;;;;7.40;3.85;;;;;;;25.58;55.47;100589.14;1686216;83;21058;-62
2021/08/10 08:49:49;;;;;;;7.45;4.65;;;;;;;25.62;56.16;100582.78;1663365;84;21015;-63
2021/08/10 08:52:16;;;;;;;6.00;4.37;;;;;;;25.73;56.75;100577.52;1686593;83;21083;-61
2021/08/10 08:54:45;;;;;;;6.22;4.15;;;;;;;25.91;56.26;100575.96;1667847;83;21078;-60
2021/08/10 08:57:12;;;;;;;7.12;4.75;;;;;;;26.07;54.99;100573.25;1665754;84;21096;-61
2021/08/10 08:59:42;;;;;;;8.85;5.03;;;;;;;26.13;54.70;100579.94;1687346;83;20942;-62
2021/08/10 09:02:18;;;;;;;7.65;4.37;;;;;;;26.14;54.45;100570.81;1683535;83;21117;-60
2021/08/10 09:04:47;;;;;;;6.83;4.83;;;;;;;26.19;54.54;100566.08;1684721;83;21090;-60
2021/08/10 09:07:16;;;;;;;6.65;4.37;;;;;;;26.22;53.87;100563.48;1681989;83;21093;-61
2021/08/10 09:09:46;;;;;;;6.28;4.35;;;;;;;26.20;54.17;100564.23;1684943;83;21081;-60
2021/08/10 09:12:16;;;;;;;7.25;4.58;;;;;;;26.21;54.27;100564.02;1682920;83;21106;-60
2021/08/10 09:14:51;;;;;;;8.83;4.50;;;;;;;26.27;54.13;100569.84;1685691;84;21108;-61
2021/08/10 09:17:22;;;;;;;9.25;4.35;;;;;;;26.35;53.14;100559.84;1687779;83;20959;-61
2021/08/10 09:19:58;;;;;;;7.97;4.70;;;;;;;26.40;53.42;100561.34;1687040;84;21070;-62
2021/08/10 09:22:28;;;;;;;7.10;4.42;;;;;;;26.44;51.22;100566.58;1673132;84;21301;-56
2021/08/10 09:25:02;;;;;;;6.53;4.40;;;;;;;26.51;51.04;100564.12;1672153;84;21127;-58
2021/08/10 09:27:37;;;;;;;6.22;4.60;;;;;;;26.57;51.43;100565.63;1688904;83;21104;-57
2021/08/10 09:30:08;;;;;;;6.55;3.83;;;;;;;26.62;50.72;100556.33;1647465;84;21149;-58
2021/08/10 09:32:59;;;;;;;6.80;4.37;;;;;;;26.65;51.12;100558.61;1686537;84;21098;-56
2021/08/10 09:35:35;;;;;;;6.25;4.50;;;;;;;26.73;50.98;100552.91;1661581;84;21805;-57
2021/08/10 09:38:07;;;;;;;13.50;5.00;;;;;;;26.79;50.65;100557.39;1685926;83;21072;-57
2021/08/10 09:40:43;;;;;;;5.25;4.10;;;;;;;26.84;50.54;100556.19;1685513;84;21607;-60
2021/08/10 09:43:32;;;;;;;6.53;4.55;;;;;;;26.90;50.89;100557.67;1685620;84;21106;-62
2021/08/10 09:46:15;;;;;;;7.28;4.20;;;;;;;26.95;50.74;100553.77;1686947;84;20999;-62
2021/08/10 09:48:54;;;;;;;6.65;4.37;;;;;;;26.98;50.37;100556.02;1685932;83;21074;-63
2021/08/10 09:51:23;;;;;;;7.22;4.85;;;;;;;27.01;49.99;100556.92;1642602;84;21157;-61
2021/08/10 09:54:12;;;;;;;5.95;4.62;;;;;;;27.04;50.42;100553.23;1658667;84;21516;-60
2021/08/10 09:56:50;;;;;;;5.53;3.98;;;;;;;27.10;50.48;100550.17;1659792;84;21019;-60
2021/08/10 09:59:29;;;;;;;8.10;4.58;;;;;;;27.20;50.03;100549.09;1674577;83;21106;-62
2021/08/10 10:01:59;;;;;;;5.90;4.08;;;;;;;27.30;49.36;100549.08;1634520;86;21926;-62
2021/08/10 10:04:29;;;;;;;5.90;4.17;;;;;;;27.36;49.69;100548.98;1669130;84;21071;-61
2021/08/10 10:07:11;;;;;;;9.18;4.47;;;;;;;27.42;49.20;100546.73;1687792;83;21118;-61
2021/08/10 10:09:39;;;;;;;6.22;4.15;;;;;;;27.47;49.29;100543.34;1655208;85;21121;-64
2021/08/10 10:12:12;;;;;;;8.58;4.08;;;;;;;27.53;49.54;100531.58;1673035;84;21087;-63
2021/08/10 10:14:39;;;;;;;5.97;4.03;;;;;;;27.61;48.87;100532.60;1689018;83;21203;-62
2021/08/10 10:17:10;;;;;;;6.17;4.47;;;;;;;27.68;48.49;100533.84;1682136;83;21039;-62
2021/08/10 10:19:41;;;;;;;8.83;4.25;;;;;;;27.74;47.90;100530.22;1685569;83;21020;-63
2021/08/10 10:22:15;;;;;;;7.20;3.92;;;;;;;27.80;47.96;100518.99;1657457;85;21611;-62
2021/08/10 10:24:53;;;;;;;5.70;3.92;;;;;;;27.83;47.88;100519.07;1657190;85;21579;-62
2021/08/10 10:27:20;;;;;;;6.65;4.20;;;;;;;27.88;47.51;100510.54;1682305;83;21111;-64
2021/08/10 10:29:49;;;;;;;7.17;4.50;;;;;;;27.95;47.68;100509.10;1678118;83;21066;-60
2021/08/10 10:32:19;;;;;;;5.83;4.17;;;;;;;27.99;47.54;100506.20;1676029;83;21083;-62
2021/08/10 10:34:46;;;;;;;6.70;4.17;;;;;;;28.04;46.96;100505.51;1703604;82;21142;-64
2021/08/10 10:37:19;;;;;;;5.92;4.33;;;;;;;28.05;47.13;100493.10;1717447;81;21093;-62
2021/08/10 10:39:46;;;;;;;6.08;4.10;;;;;;;28.08;46.58;100495.88;1713578;81;21094;-62
2021/08/10 10:42:14;;;;;;;6.30;4.42;;;;;;;28.09;46.59;100489.39;1694299;81;21092;-63
2021/08/10 10:44:45;;;;;;;5.70;4.28;;;;;;;28.09;46.35;100478.57;1719185;83;21069;-62
2021/08/10 10:47:31;;;;;;;5.78;4.40;;;;;;;28.12;46.87;100484.87;1692312;83;21109;-61
2021/08/10 10:50:04;;;;;;;8.43;3.50;;;;;;;28.17;46.79;100485.79;1715914;83;21147;-62
2021/08/10 10:52:34;;;;;;;6.10;4.37;;;;;;;28.24;46.40;100487.02;1705930;82;21134;-62
2021/08/10 10:55:04;;;;;;;5.67;4.03;;;;;;;28.32;47.10;100488.55;1718862;81;21481;-65
2021/08/10 10:57:35;;;;;;;5.55;3.98;;;;;;;28.42;45.53;100478.48;1693583;83;21570;-60
2021/08/10 11:00:14;;;;;;;7.05;3.87;;;;;;;28.48;44.43;100484.27;1721023;81;21084;-60
2021/08/10 11:02:40;;;;;;;5.50;4.12;;;;;;;28.52;44.83;100487.61;1690110;83;21129;-63
2021/08/10 11:05:22;;;;;;;7.00;4.25;;;;;;;28.56;44.84;100486.62;1691584;83;21156;-62
2021/08/10 11:07:53;;;;;;;9.58;3.60;;;;;;;28.61;45.01;100484.02;1711890;81;21101;-63
2021/08/10 11:10:45;;;;;;;6.37;3.95;;;;;;;28.68;45.68;100480.67;1686069;83;21089;-62
2021/08/10 11:13:27;;;;;;;5.75;4.03;;;;;;;28.74;45.12;100480.77;1685149;84;21718;-62
2021/08/10 11:15:55;;;;;;;6.60;3.70;;;;;;;28.77;45.07;100484.34;1689298;82;21074;-61
2021/08/10 11:18:25;;;;;;;7.08;4.12;;;;;;;28.78;44.55;100484.62;1710421;82;21125;-61
2021/08/10 11:21:04;;;;;;;6.87;3.52;;;;;;;28.81;44.46;100481.44;1709185;82;21082;-61
2021/08/10 11:23:33;;;;;;;5.92;4.20;;;;;;;28.85;43.68;100470.39;1706153;82;21356;-62
2021/08/10 11:26:06;;;;;;;6.10;4.00;;;;;;;28.91;44.03;100472.14;1702079;82;21679;-60
2021/08/10 11:28:39;;;;;;;5.75;3.75;;;;;;;28.90;43.86;100464.56;1702906;82;21094;-63
2021/08/10 11:31:09;;;;;;;5.67;4.17;;;;;;;28.91;43.48;100473.50;1698920;82;21908;-62
2021/08/10 11:33:40;;;;;;;5.58;3.80;;;;;;;28.88;43.39;100465.34;1705293;82;21533;-63
2021/08/10 11:36:22;;;;;;;5.40;3.65;;;;;;;28.90;43.78;100465.11;1704030;82;21142;-62
2021/08/10 11:38:55;;;;;;;5.83;3.90;;;;;;;28.96;43.90;100461.41;1701582;82;21081;-63